Time;durP1;ratioP1;P1;durP2;ratioP2;P2;SDS_P1;SDS_P2;PMS_P1;PMS_P2;Temp;Humidity;BMP_temperature;BMP_pressure;BME280_temperature;BME280_humidity;BME280_pressure;Samples;Min_cycle;Max_cycle;Signal;HPM_P1;HPM_P2
2022/01/26 00:07:31;;;;;;;9.17;5.50;;;3.20;99.90;;;;;;4991076;28;20238;-80
2022/01/26 00:09:56;;;;;;;9.30;5.60;;;3.30;99.90;;;;;;4994278;28;20275;-78
2022/01/26 00:12:22;;;;;;;10.77;5.93;;;3.20;99.90;;;;;;4993911;28;20176;-78
2022/01/26 00:14:47;;;;;;;10.43;5.80;;;3.20;99.90;;;;;;4993169;28;20176;-79
2022/01/26 00:17:14;;;;;;;11.17;6.10;;;3.30;99.90;;;;;;4992796;28;20591;-78
2022/01/26 00:20:08;;;;;;;10.50;6.00;;;3.20;99.90;;;;;;4991261;28;20176;-78
2022/01/26 00:41:04;;;;;;;10.43;5.87;;;3.20;99.90;;;;;;4995853;28;20192;-79
2022/01/26 00:43:31;;;;;;;10.70;5.97;;;3.30;99.90;;;;;;4994444;28;20188;-78
2022/01/26 00:45:58;;;;;;;9.47;5.90;;;3.30;99.90;;;;;;4972693;28;20861;-78
2022/01/26 00:48:25;;;;;;;11.37;6.40;;;3.20;99.90;;;;;;4973618;28;20184;-78
2022/01/26 00:50:53;;;;;;;12.73;6.70;;;3.30;99.90;;;;;;4990727;28;20180;-78
2022/01/26 00:53:28;;;;;;;11.67;6.73;;;3.30;99.90;;;;;;4989700;28;20235;-77
2022/01/26 00:55:54;;;;;;;13.10;7.37;;;3.20;99.90;;;;;;4988414;28;20207;-77
2022/01/26 00:58:20;;;;;;;11.60;7.53;;;3.20;99.90;;;;;;4988975;28;20181;-78
2022/01/26 01:00:46;;;;;;;14.27;7.73;;;3.10;99.90;;;;;;4971297;28;20210;-78
2022/01/26 01:03:11;;;;;;;16.43;7.93;;;3.10;99.90;;;;;;4988653;28;20573;-77
2022/01/26 01:05:44;;;;;;;13.07;7.33;;;3.10;99.90;;;;;;4988269;28;20208;-78
2022/01/26 01:08:15;;;;;;;11.83;7.23;;;3.00;99.90;;;;;;4988851;28;20187;-78
2022/01/26 01:10:44;;;;;;;14.20;7.13;;;3.10;99.90;;;;;;4988266;28;20199;-77
2022/01/26 01:13:15;;;;;;;12.30;5.80;;;3.10;99.90;;;;;;4970739;28;20917;-77
2022/01/26 01:15:42;;;;;;;14.50;7.10;;;3.20;99.90;;;;;;4988100;28;20200;-78
2022/01/26 01:18:21;;;;;;;12.13;6.87;;;3.20;99.90;;;;;;4988438;28;20189;-77
2022/01/26 01:23:56;;;;;;;13.57;7.70;;;3.10;99.90;;;;;;4987960;28;20183;-78
2022/01/26 01:31:16;;;;;;;13.80;7.47;;;3.20;99.90;;;;;;4987864;28;20184;-77
2022/01/26 01:33:47;;;;;;;10.70;6.33;;;3.10;99.90;;;;;;4987957;28;20173;-76
2022/01/26 01:36:13;;;;;;;14.80;8.03;;;3.20;99.90;;;;;;4988268;28;20208;-77
2022/01/26 01:38:41;;;;;;;13.13;7.47;;;3.20;99.90;;;;;;4970796;28;20681;-77
2022/01/26 01:41:07;;;;;;;13.00;7.60;;;3.20;99.90;;;;;;4988164;28;20662;-77
2022/01/26 01:43:33;;;;;;;14.83;7.07;;;3.20;99.90;;;;;;4987700;28;20247;-77
2022/01/26 01:45:59;;;;;;;15.07;6.83;;;3.20;99.90;;;;;;4987272;28;20844;-77
2022/01/26 01:48:29;;;;;;;14.63;7.77;;;3.20;99.90;;;;;;4987098;28;20267;-77
2022/01/26 01:50:57;;;;;;;11.37;7.10;;;3.20;99.90;;;;;;4987596;28;20173;-76
2022/01/26 01:53:31;;;;;;;12.70;6.93;;;3.10;99.90;;;;;;4987385;28;20715;-77
2022/01/26 01:55:58;;;;;;;11.00;6.73;;;3.20;99.90;;;;;;4969959;28;20740;-77
2022/01/26 01:58:24;;;;;;;13.10;6.80;;;3.10;99.90;;;;;;4986955;28;20181;-78
2022/01/26 02:00:50;;;;;;;13.57;6.20;;;3.10;99.90;;;;;;4986572;28;20176;-77
2022/01/26 02:03:15;;;;;;;12.43;6.77;;;3.10;99.90;;;;;;4986907;28;20199;-77
2022/01/26 02:05:41;;;;;;;13.90;6.80;;;3.20;99.90;;;;;;4986616;28;20702;-77
2022/01/26 02:08:07;;;;;;;16.33;7.40;;;3.10;99.90;;;;;;4987164;28;20184;-77
2022/01/26 02:10:33;;;;;;;12.70;7.50;;;3.10;99.90;;;;;;4986897;28;20190;-77
2022/01/26 02:13:03;;;;;;;10.57;6.40;;;3.00;99.90;;;;;;4986998;28;20708;-77
2022/01/26 02:15:38;;;;;;;12.23;7.27;;;3.00;99.90;;;;;;4969224;28;20928;-76
2022/01/26 02:21:10;;;;;;;14.53;7.03;;;3.10;99.90;;;;;;4986851;28;20263;-77
2022/01/26 03:09:42;;;;;;;13.07;6.90;;;2.80;99.90;;;;;;4977056;28;20558;-76
2022/01/26 03:12:09;;;;;;;11.17;5.43;;;2.80;99.90;;;;;;4985518;28;20184;-76
2022/01/26 03:14:52;;;;;;;12.50;6.90;;;2.90;99.90;;;;;;4968111;28;20267;-77
2022/01/26 03:20:08;;;;;;;13.10;7.10;;;2.80;99.90;;;;;;4986180;28;20227;-75
2022/01/26 03:33:46;;;;;;;12.30;7.03;;;2.70;99.90;;;;;;4986396;28;20180;-77
2022/01/26 03:36:12;;;;;;;15.10;7.60;;;2.70;99.90;;;;;;4984644;28;20243;-76
2022/01/26 03:38:42;;;;;;;16.80;8.87;;;2.70;99.90;;;;;;4968061;28;20318;-78
2022/01/26 03:41:22;;;;;;;16.40;8.77;;;2.70;99.90;;;;;;4968397;28;20181;-76
2022/01/26 03:43:48;;;;;;;17.10;8.70;;;2.60;99.90;;;;;;4990477;28;20666;-78
2022/01/26 03:46:13;;;;;;;13.60;7.67;;;2.60;99.90;;;;;;4991243;28;20266;-75
2022/01/26 03:48:39;;;;;;;16.17;7.87;;;2.50;99.90;;;;;;4973379;28;20184;-76
2022/01/26 03:51:05;;;;;;;17.27;8.13;;;2.60;99.90;;;;;;4972783;28;20188;-77
2022/01/26 03:53:31;;;;;;;17.20;8.13;;;2.60;99.90;;;;;;4972948;28;20720;-77
2022/01/26 03:55:56;;;;;;;14.53;7.60;;;2.60;99.90;;;;;;4990767;28;20729;-78
2022/01/26 03:58:22;;;;;;;14.77;7.93;;;2.60;99.90;;;;;;4972792;28;21157;-76
2022/01/26 04:00:47;;;;;;;16.93;7.63;;;2.60;99.90;;;;;;4990118;28;20658;-79
2022/01/26 04:03:13;;;;;;;15.43;8.03;;;2.50;99.90;;;;;;4989909;28;20220;-77
2022/01/26 04:05:39;;;;;;;14.40;7.93;;;2.50;99.90;;;;;;4972206;28;20204;-76
2022/01/26 04:08:12;;;;;;;18.53;7.27;;;2.60;99.90;;;;;;4989563;28;20191;-77
2022/01/26 04:11:29;;;;;;;14.80;7.53;;;2.60;99.90;;;;;;4989308;28;20317;-78
2022/01/26 04:13:26;;;;;;;12.77;7.57;;;2.60;99.90;;;;;;4989591;28;20188;-79
2022/01/26 04:15:52;;;;;;;17.13;8.00;;;2.60;99.90;;;;;;4975494;28;20306;-77
2022/01/26 04:18:23;;;;;;;16.87;8.00;;;2.50;99.90;;;;;;4988390;28;20191;-77
2022/01/26 04:20:53;;;;;;;15.40;8.03;;;2.50;99.90;;;;;;4988043;28;20176;-76
2022/01/26 04:23:27;;;;;;;15.80;8.80;;;2.50;99.90;;;;;;4987651;28;20192;-76
2022/01/26 04:25:53;;;;;;;17.77;8.50;;;2.60;99.90;;;;;;4987107;28;20230;-77
2022/01/26 04:28:26;;;;;;;15.97;8.47;;;2.70;99.90;;;;;;4988163;28;20187;-75
2022/01/26 04:30:52;;;;;;;19.73;8.73;;;2.60;99.90;;;;;;4987939;28;20188;-76
2022/01/26 04:33:17;;;;;;;18.37;8.80;;;2.60;99.90;;;;;;4970481;28;20235;-75
2022/01/26 04:35:45;;;;;;;18.53;9.27;;;2.60;99.90;;;;;;4987954;28;20249;-75
2022/01/26 04:41:25;;;;;;;21.07;9.97;;;2.60;99.90;;;;;;4983465;28;20204;-75
2022/01/26 04:43:55;;;;;;;17.00;8.87;;;2.60;99.90;;;;;;4987462;28;20184;-75
2022/01/26 04:46:20;;;;;;;16.57;8.97;;;2.60;99.90;;;;;;4986756;28;20231;-76
2022/01/26 04:48:46;;;;;;;17.53;8.33;;;2.60;99.90;;;;;;4988031;28;20639;-76
2022/01/26 04:51:12;;;;;;;17.47;8.30;;;2.60;99.90;;;;;;4970219;28;20207;-77
2022/01/26 04:53:37;;;;;;;18.37;8.57;;;2.60;99.90;;;;;;4986573;28;20188;-77
2022/01/26 04:56:03;;;;;;;16.13;7.90;;;2.50;99.90;;;;;;4970258;28;20216;-78
2022/01/26 04:58:28;;;;;;;16.03;7.53;;;2.50;99.90;;;;;;4988019;28;20203;-77
2022/01/26 05:00:54;;;;;;;13.93;6.97;;;2.50;99.90;;;;;;4988506;28;20192;-79
2022/01/26 05:03:20;;;;;;;14.93;6.90;;;2.50;99.90;;;;;;4987202;28;20189;-78
2022/01/26 05:05:45;;;;;;;12.27;6.40;;;2.50;99.90;;;;;;4985417;28;20391;-77
2022/01/26 05:08:11;;;;;;;11.90;5.70;;;2.60;99.90;;;;;;4984855;28;20417;-77
2022/01/26 05:10:39;;;;;;;13.47;5.77;;;2.60;99.90;;;;;;4984187;28;20665;-77
2022/01/26 05:13:04;;;;;;;11.17;5.87;;;2.60;99.90;;;;;;4985001;28;20184;-76
2022/01/26 05:15:30;;;;;;;11.27;5.67;;;2.60;99.90;;;;;;4984790;28;20204;-76
2022/01/26 05:17:56;;;;;;;12.63;5.87;;;2.60;99.90;;;;;;4984736;28;20277;-78
2022/01/26 05:20:21;;;;;;;12.37;6.13;;;2.50;99.90;;;;;;4967174;28;20192;-77
2022/01/26 05:22:47;;;;;;;11.07;6.33;;;2.60;99.90;;;;;;4984744;28;20190;-78
2022/01/26 05:25:13;;;;;;;10.87;6.17;;;2.70;99.90;;;;;;4966814;28;20339;-78
2022/01/26 05:27:39;;;;;;;17.73;8.80;;;2.70;99.90;;;;;;4985132;28;20713;-78
2022/01/26 05:30:07;;;;;;;18.13;8.60;;;2.60;99.90;;;;;;4984503;28;20643;-78
2022/01/26 05:32:32;;;;;;;19.80;9.07;;;2.70;99.90;;;;;;4967326;28;20553;-77
2022/01/26 05:34:58;;;;;;;14.37;8.07;;;2.60;99.90;;;;;;4985005;28;20192;-76
2022/01/26 05:37:24;;;;;;;17.43;8.67;;;2.60;99.90;;;;;;4984371;28;20843;-79
2022/01/26 05:39:49;;;;;;;21.83;9.57;;;2.60;99.90;;;;;;4984485;28;20261;-76
2022/01/26 05:42:16;;;;;;;16.47;8.97;;;2.50;99.90;;;;;;4984189;28;20192;-77
2022/01/26 05:44:45;;;;;;;18.07;9.17;;;2.60;99.90;;;;;;4984515;28;20187;-77
2022/01/26 05:47:15;;;;;;;16.13;8.30;;;2.60;99.90;;;;;;4984093;28;20311;-77
2022/01/26 05:49:41;;;;;;;23.30;10.03;;;2.60;99.90;;;;;;4966797;28;20725;-77
2022/01/26 05:52:07;;;;;;;19.90;9.67;;;2.50;99.90;;;;;;4984049;28;20390;-77
2022/01/26 05:54:32;;;;;;;20.30;9.67;;;2.50;99.90;;;;;;4983930;28;20212;-76
2022/01/26 05:56:58;;;;;;;20.07;9.60;;;2.50;99.90;;;;;;4966579;28;20357;-77
2022/01/26 05:59:23;;;;;;;18.60;10.10;;;2.50;99.90;;;;;;4984588;28;20554;-78
2022/01/26 06:01:50;;;;;;;20.23;10.43;;;2.50;99.90;;;;;;4983803;28;20188;-77
2022/01/26 06:04:16;;;;;;;17.63;8.93;;;2.40;99.90;;;;;;4983767;28;20950;-78
2022/01/26 06:06:42;;;;;;;19.80;9.70;;;2.50;99.90;;;;;;4966213;28;20219;-78
2022/01/26 06:09:08;;;;;;;20.20;10.87;;;2.50;99.90;;;;;;4965976;28;20184;-77
2022/01/26 06:11:35;;;;;;;22.10;10.37;;;2.40;99.90;;;;;;4983626;28;20287;-77
2022/01/26 06:14:00;;;;;;;24.37;10.60;;;2.50;99.90;;;;;;4965923;28;20279;-78
2022/01/26 06:16:26;;;;;;;23.73;10.93;;;2.50;99.90;;;;;;4984095;28;20299;-77
2022/01/26 06:18:51;;;;;;;22.03;9.70;;;2.40;99.90;;;;;;4983638;28;20196;-77
2022/01/26 06:21:17;;;;;;;22.40;11.07;;;2.50;99.90;;;;;;4983557;28;20197;-78
2022/01/26 06:23:43;;;;;;;25.23;11.00;;;2.40;99.90;;;;;;4983418;28;20469;-76
2022/01/26 06:26:09;;;;;;;23.03;11.07;;;2.30;99.90;;;;;;4983440;28;20231;-76
2022/01/26 06:28:35;;;;;;;23.13;10.90;;;2.40;99.90;;;;;;4966434;28;20211;-77
2022/01/26 06:31:08;;;;;;;23.13;11.73;;;2.40;99.90;;;;;;4983078;28;20825;-78
2022/01/26 06:33:35;;;;;;;23.90;11.07;;;2.40;99.90;;;;;;4983442;28;20234;-78
2022/01/26 06:36:00;;;;;;;25.40;12.03;;;2.50;99.90;;;;;;4965445;28;20299;-78
2022/01/26 06:38:30;;;;;;;26.93;11.97;;;2.60;99.90;;;;;;4983810;28;20388;-76
2022/01/26 06:40:58;;;;;;;27.57;11.93;;;2.50;99.90;;;;;;4983472;28;20196;-77
2022/01/26 06:43:27;;;;;;;24.70;10.83;;;2.50;99.90;;;;;;4983460;28;20564;-78
2022/01/26 06:45:59;;;;;;;28.80;11.63;;;2.50;99.90;;;;;;4983204;28;20228;-77
2022/01/26 06:51:00;;;;;;;25.87;10.90;;;2.50;99.90;;;;;;4981930;28;20211;-77
2022/01/26 06:53:26;;;;;;;25.13;11.13;;;2.40;99.90;;;;;;4982826;28;20184;-77
2022/01/26 06:55:52;;;;;;;26.63;10.57;;;2.50;99.90;;;;;;4982724;28;20580;-76
2022/01/26 06:58:17;;;;;;;24.73;11.60;;;2.50;99.90;;;;;;4982670;28;20196;-78
2022/01/26 07:00:43;;;;;;;25.13;11.03;;;2.50;99.90;;;;;;4982889;28;20192;-77
2022/01/26 07:03:09;;;;;;;25.87;11.03;;;2.50;99.90;;;;;;4982694;28;20203;-76
2022/01/26 07:05:35;;;;;;;26.63;11.70;;;2.40;99.90;;;;;;4982864;28;20208;-76
2022/01/26 07:08:01;;;;;;;24.63;11.37;;;2.40;99.90;;;;;;4985326;28;20191;-78
2022/01/26 07:10:28;;;;;;;23.60;10.10;;;2.40;99.90;;;;;;4982828;28;20183;-78
2022/01/26 07:12:53;;;;;;;28.90;10.93;;;2.30;99.90;;;;;;4982598;28;20666;-76
2022/01/26 07:23:26;;;;;;;26.77;11.23;;;2.40;99.90;;;;;;4989506;28;20175;-77
2022/01/26 07:25:52;;;;;;;20.20;9.67;;;2.40;99.90;;;;;;4986684;28;20309;-78
2022/01/26 07:28:18;;;;;;;25.57;10.23;;;2.40;99.90;;;;;;4987374;28;20189;-78
2022/01/26 07:30:43;;;;;;;23.30;10.40;;;2.40;99.90;;;;;;4988928;28;20790;-77
2022/01/26 07:33:09;;;;;;;24.50;10.57;;;2.40;99.90;;;;;;4989048;28;20264;-77
2022/01/26 07:35:35;;;;;;;25.40;11.40;;;2.40;99.90;;;;;;4970455;28;20200;-78
2022/01/26 07:38:03;;;;;;;22.73;10.60;;;2.40;99.90;;;;;;4988695;28;20570;-78
2022/01/26 07:40:29;;;;;;;26.10;11.80;;;2.40;99.90;;;;;;4988321;28;20231;-79
2022/01/26 07:42:54;;;;;;;29.83;12.50;;;2.40;99.90;;;;;;4989015;28;20184;-78
2022/01/26 07:45:20;;;;;;;29.37;12.33;;;2.50;99.90;;;;;;4971038;28;20242;-77
2022/01/26 07:47:47;;;;;;;32.73;12.90;;;2.40;99.90;;;;;;4971706;28;20633;-78
2022/01/26 07:50:15;;;;;;;33.13;12.40;;;2.40;99.90;;;;;;4971325;28;20647;-78
2022/01/26 07:52:42;;;;;;;28.63;11.07;;;2.40;99.90;;;;;;4971302;28;20184;-78
2022/01/26 07:55:10;;;;;;;32.10;13.03;;;2.40;99.90;;;;;;4970716;28;20192;-76
2022/01/26 07:57:36;;;;;;;32.27;11.87;;;2.40;99.90;;;;;;4989160;28;20209;-78
2022/01/26 08:00:05;;;;;;;33.27;12.53;;;2.40;99.90;;;;;;4988289;28;20275;-78
2022/01/26 08:02:30;;;;;;;32.40;12.47;;;2.30;99.90;;;;;;4988833;28;20188;-78
2022/01/26 08:04:57;;;;;;;35.97;14.17;;;2.30;99.90;;;;;;4971461;28;20705;-78
2022/01/26 08:07:23;;;;;;;35.77;13.70;;;2.30;99.90;;;;;;4999594;28;20204;-78
2022/01/26 08:09:48;;;;;;;41.00;16.03;;;2.30;99.90;;;;;;4971220;28;20567;-77
2022/01/26 08:12:15;;;;;;;35.57;13.63;;;2.30;99.90;;;;;;4970422;28;20613;-78
2022/01/26 08:14:45;;;;;;;33.43;11.67;;;2.20;99.90;;;;;;4991198;28;20191;-79
2022/01/26 08:17:14;;;;;;;31.93;11.53;;;2.20;99.90;;;;;;4985536;28;20274;-78
2022/01/26 08:19:39;;;;;;;35.10;12.70;;;2.10;99.90;;;;;;4984719;28;20184;-78
2022/01/26 08:22:05;;;;;;;33.90;11.87;;;2.20;99.90;;;;;;4989741;28;20311;-79
2022/01/26 08:24:31;;;;;;;32.30;12.23;;;2.10;99.90;;;;;;4983539;28;20188;-77
2022/01/26 08:27:08;;;;;;;30.83;11.10;;;2.10;99.90;;;;;;4985280;28;20222;-77
2022/01/26 08:29:45;;;;;;;33.67;11.20;;;2.20;99.90;;;;;;4985142;28;20274;-77
2022/01/26 08:32:11;;;;;;;32.53;12.90;;;2.20;99.90;;;;;;4982169;28;20190;-77
2022/01/26 08:34:37;;;;;;;33.43;12.60;;;2.20;99.90;;;;;;4983392;28;20550;-77
2022/01/26 08:37:06;;;;;;;33.30;11.03;;;2.10;99.90;;;;;;4981003;28;20212;-77
2022/01/26 08:39:32;;;;;;;36.17;12.13;;;2.10;99.90;;;;;;4985633;28;20713;-78
2022/01/26 08:41:59;;;;;;;31.70;11.47;;;2.10;99.90;;;;;;4982328;28;20188;-77
2022/01/26 08:44:25;;;;;;;33.67;12.27;;;2.20;99.90;;;;;;4983171;28;20197;-76
2022/01/26 08:46:51;;;;;;;31.80;11.60;;;2.10;99.90;;;;;;4982499;28;20262;-77
2022/01/26 08:49:17;;;;;;;35.13;13.20;;;2.10;99.90;;;;;;4964870;28;20185;-77
2022/01/26 08:51:43;;;;;;;33.03;12.20;;;2.20;99.90;;;;;;4961655;28;20192;-76
2022/01/26 08:54:10;;;;;;;33.70;12.53;;;2.20;99.90;;;;;;4982756;28;20234;-76
2022/01/26 08:56:36;;;;;;;36.20;12.50;;;2.10;99.90;;;;;;4980732;28;20227;-76
2022/01/26 08:59:03;;;;;;;33.13;11.63;;;2.20;99.90;;;;;;4982219;28;20558;-77
2022/01/26 09:01:29;;;;;;;36.90;14.17;;;2.20;99.90;;;;;;4982692;28;20275;-77
2022/01/26 09:03:55;;;;;;;34.47;13.87;;;2.10;99.90;;;;;;4982465;28;20192;-78
2022/01/26 09:06:21;;;;;;;41.10;13.40;;;2.20;99.90;;;;;;4981393;28;20219;-77
2022/01/26 09:08:52;;;;;;;36.13;13.10;;;2.20;99.90;;;;;;4984233;28;20188;-79
2022/01/26 09:11:21;;;;;;;41.73;13.70;;;2.20;99.90;;;;;;4984533;28;20184;-78
2022/01/26 09:13:51;;;;;;;37.70;13.30;;;2.20;99.90;;;;;;4986926;28;20199;-79
2022/01/26 09:16:19;;;;;;;35.57;13.50;;;2.20;99.90;;;;;;4981996;28;20212;-76
2022/01/26 09:18:51;;;;;;;35.50;12.03;;;2.20;99.90;;;;;;4981892;28;20212;-78
2022/01/26 09:21:18;;;;;;;32.47;12.83;;;2.10;99.90;;;;;;4981752;28;20188;-77
2022/01/26 09:23:44;;;;;;;38.47;12.63;;;2.10;99.90;;;;;;4981031;28;20242;-77
2022/01/26 09:26:09;;;;;;;39.73;14.50;;;2.10;99.90;;;;;;4981599;28;20216;-77
2022/01/26 09:28:35;;;;;;;40.63;14.80;;;2.10;99.90;;;;;;4982274;28;20662;-77
2022/01/26 09:31:01;;;;;;;38.50;14.57;;;2.10;99.90;;;;;;4982043;28;20223;-79
2022/01/26 09:33:26;;;;;;;42.63;15.47;;;2.10;99.90;;;;;;4982245;28;20721;-78
2022/01/26 09:35:52;;;;;;;39.73;14.13;;;2.10;99.90;;;;;;4982211;28;20208;-79
2022/01/26 09:38:17;;;;;;;38.27;14.20;;;2.10;99.90;;;;;;4982747;28;20211;-77
2022/01/26 09:40:46;;;;;;;40.60;14.30;;;2.20;99.90;;;;;;4982114;28;20194;-75
2022/01/26 09:43:13;;;;;;;40.03;14.67;;;2.10;99.90;;;;;;4982477;28;20196;-76
2022/01/26 09:45:38;;;;;;;39.70;14.60;;;2.10;99.90;;;;;;4980136;28;20589;-77
2022/01/26 09:48:04;;;;;;;44.03;15.10;;;2.10;99.90;;;;;;4982068;28;20188;-76
2022/01/26 09:50:32;;;;;;;44.30;15.73;;;2.20;99.90;;;;;;4981125;28;20180;-76
2022/01/26 09:52:58;;;;;;;39.17;14.50;;;2.20;99.90;;;;;;4981094;28;20227;-76
2022/01/26 09:55:25;;;;;;;47.63;15.87;;;2.20;99.90;;;;;;4982742;28;20189;-76
2022/01/26 09:57:57;;;;;;;48.30;16.73;;;2.20;99.90;;;;;;4985162;28;20184;-77
2022/01/26 10:00:23;;;;;;;44.27;15.90;;;2.20;99.90;;;;;;4982190;28;20199;-80
2022/01/26 10:03:00;;;;;;;40.23;15.70;;;2.20;99.90;;;;;;4965745;28;20193;-77
2022/01/26 10:05:36;;;;;;;43.50;16.33;;;2.20;99.90;;;;;;4982235;28;20330;-76
2022/01/26 10:08:14;;;;;;;41.73;16.00;;;2.20;99.90;;;;;;4981762;28;20226;-78
2022/01/26 10:15:27;;;;;;;43.93;16.27;;;2.20;99.90;;;;;;4982127;28;20247;-79
2022/01/26 10:18:54;;;;;;;51.10;16.73;;;2.20;99.90;;;;;;4981567;28;20258;-77
2022/01/26 10:21:20;;;;;;;46.80;17.07;;;2.10;99.90;;;;;;4981046;28;20437;-78
2022/01/26 10:23:46;;;;;;;47.50;16.73;;;2.10;99.90;;;;;;4964082;28;20184;-76
2022/01/26 10:26:14;;;;;;;48.10;17.20;;;2.10;99.90;;;;;;4963716;28;20211;-77
2022/01/26 10:29:00;;;;;;;45.57;16.70;;;2.20;99.90;;;;;;4966327;28;20184;-77
2022/01/26 10:31:34;;;;;;;49.57;17.63;;;2.20;99.90;;;;;;4981216;28;20186;-77
2022/01/26 10:34:06;;;;;;;44.23;16.70;;;2.20;99.90;;;;;;4980961;28;20184;-78
2022/01/26 10:36:35;;;;;;;49.33;17.77;;;2.30;99.90;;;;;;4981242;28;20208;-77
2022/01/26 10:39:08;;;;;;;50.50;18.03;;;2.20;99.90;;;;;;4982948;28;20192;-79
2022/01/26 10:41:34;;;;;;;55.17;18.50;;;2.10;99.90;;;;;;4982714;28;20659;-76
2022/01/26 10:44:02;;;;;;;56.03;18.93;;;2.20;99.90;;;;;;4982651;28;20246;-80
2022/01/26 10:46:40;;;;;;;54.27;18.80;;;2.20;99.90;;;;;;4964918;28;20216;-77
2022/01/26 10:49:54;;;;;;;58.90;21.77;;;2.20;99.90;;;;;;4980601;28;20274;-77
2022/01/26 10:52:19;;;;;;;62.00;21.70;;;2.20;99.90;;;;;;4981625;28;20673;-77
2022/01/26 10:54:45;;;;;;;57.40;21.23;;;2.10;99.90;;;;;;4984533;28;20534;-77
2022/01/26 10:57:12;;;;;;;60.27;22.10;;;2.10;99.90;;;;;;4984499;28;20208;-77
2022/01/26 10:59:43;;;;;;;62.57;24.03;;;2.10;99.90;;;;;;4967618;28;20651;-78
2022/01/26 11:02:11;;;;;;;64.10;24.47;;;2.10;99.90;;;;;;4984601;28;20670;-76
2022/01/26 11:04:39;;;;;;;64.60;23.87;;;2.10;99.90;;;;;;4984503;28;20200;-78
2022/01/26 11:07:08;;;;;;;62.70;22.97;;;2.10;99.90;;;;;;4963658;28;20282;-78
2022/01/26 11:09:36;;;;;;;62.03;24.63;;;2.10;99.90;;;;;;4984312;28;20204;-77
2022/01/26 11:12:12;;;;;;;61.70;24.07;;;2.10;99.90;;;;;;4983804;28;20242;-78
2022/01/26 11:14:47;;;;;;;64.80;25.33;;;2.10;99.90;;;;;;4966197;28;20190;-77
2022/01/26 11:17:29;;;;;;;59.47;23.97;;;2.10;99.90;;;;;;4966719;28;20247;-77
2022/01/26 11:19:57;;;;;;;63.83;25.93;;;2.10;99.90;;;;;;4998864;28;20180;-77
2022/01/26 11:22:27;;;;;;;64.57;24.03;;;2.20;99.90;;;;;;4984512;28;20187;-77
2022/01/26 11:24:54;;;;;;;69.20;27.90;;;2.20;99.90;;;;;;4962891;28;20195;-78
2022/01/26 11:27:20;;;;;;;65.80;25.23;;;2.10;99.90;;;;;;4981090;28;20203;-77
2022/01/26 11:29:50;;;;;;;69.33;25.47;;;2.20;99.90;;;;;;4983046;28;20181;-77
2022/01/26 11:32:28;;;;;;;68.93;27.10;;;2.10;99.90;;;;;;4984522;28;20176;-77
2022/01/26 11:34:55;;;;;;;65.83;25.07;;;2.10;99.90;;;;;;4984003;28;20354;-77
2022/01/26 11:37:40;;;;;;;61.90;25.33;;;2.20;99.90;;;;;;4984995;28;20578;-77
2022/01/26 11:45:34;;;;;;;62.93;23.93;;;2.20;99.90;;;;;;4983451;28;20184;-76
2022/01/26 11:48:01;;;;;;;65.27;25.47;;;2.10;99.90;;;;;;4982929;28;20192;-77
2022/01/26 11:50:27;;;;;;;61.60;22.97;;;2.20;99.90;;;;;;4983560;28;20177;-76
2022/01/26 11:53:16;;;;;;;59.27;22.70;;;2.20;99.90;;;;;;4966624;28;20191;-79
2022/01/26 11:55:49;;;;;;;72.53;24.13;;;2.30;99.90;;;;;;4966554;28;20204;-76
2022/01/26 11:58:18;;;;;;;59.10;21.13;;;2.40;99.90;;;;;;4983927;28;20184;-77
2022/01/26 12:01:09;;;;;;;66.73;23.20;;;2.50;99.90;;;;;;4980751;28;20177;-76
2022/01/26 12:03:43;;;;;;;62.30;21.43;;;2.40;99.90;;;;;;4984709;28;20583;-77
2022/01/26 12:06:18;;;;;;;58.80;21.10;;;2.40;99.90;;;;;;4987144;28;20211;-77
2022/01/26 12:08:44;;;;;;;60.90;22.37;;;2.40;99.90;;;;;;4967445;28;20183;-78
2022/01/26 12:11:14;;;;;;;62.87;22.10;;;2.40;99.90;;;;;;4989234;28;20181;-78
2022/01/26 12:13:42;;;;;;;63.77;21.73;;;2.40;99.90;;;;;;4990369;28;20172;-78
2022/01/26 12:16:13;;;;;;;63.50;23.43;;;2.50;99.90;;;;;;4986735;28;20208;-78
2022/01/26 12:35:36;;;;;;;56.93;20.40;;;2.50;99.90;;;;;;4956321;28;20196;-77
2022/01/26 12:43:53;;;;;;;59.53;20.17;;;2.40;99.90;;;;;;4986925;28;20220;-77
2022/01/26 12:46:25;;;;;;;52.67;19.57;;;2.40;99.90;;;;;;4985633;28;20270;-77
2022/01/26 12:48:53;;;;;;;55.00;20.10;;;2.40;99.90;;;;;;4985850;28;20255;-77
2022/01/26 12:51:20;;;;;;;52.30;19.87;;;2.30;99.90;;;;;;4985586;28;20187;-76
2022/01/26 12:53:55;;;;;;;60.93;19.87;;;2.30;99.90;;;;;;4986509;28;20187;-76
2022/01/26 12:56:24;;;;;;;54.17;20.07;;;2.30;99.90;;;;;;4985926;28;20203;-76
2022/01/26 12:59:05;;;;;;;55.97;20.23;;;2.30;99.90;;;;;;4985984;28;20681;-76
2022/01/26 13:01:31;;;;;;;63.07;20.63;;;2.40;99.90;;;;;;4985638;28;20303;-76
2022/01/26 13:03:59;;;;;;;54.23;20.20;;;2.40;99.90;;;;;;4986094;28;20279;-76
2022/01/26 13:06:28;;;;;;;55.07;20.13;;;2.40;99.90;;;;;;4972309;28;20295;-78
2022/01/26 13:08:58;;;;;;;57.10;18.97;;;2.40;99.90;;;;;;4970103;28;20948;-76
2022/01/26 13:11:30;;;;;;;60.67;21.57;;;2.40;99.90;;;;;;4988444;28;20191;-78
2022/01/26 13:14:21;;;;;;;63.13;21.53;;;2.40;99.90;;;;;;4972349;28;20191;-78
2022/01/26 13:17:04;;;;;;;60.53;20.93;;;2.40;99.90;;;;;;4987314;28;20240;-76
2022/01/26 13:19:41;;;;;;;59.73;21.43;;;2.40;99.90;;;;;;4988328;28;20184;-76
2022/01/26 13:27:49;;;;;;;53.63;19.90;;;2.50;99.90;;;;;;4986991;28;20215;-77
2022/01/26 13:30:28;;;;;;;54.17;20.07;;;2.40;99.90;;;;;;4972338;28;20239;-76
2022/01/26 13:33:13;;;;;;;51.27;19.33;;;2.50;99.90;;;;;;4986239;28;20234;-77
2022/01/26 13:35:50;;;;;;;54.83;20.00;;;2.60;99.90;;;;;;4986867;28;20235;-79
2022/01/26 13:38:41;;;;;;;53.40;20.17;;;2.50;99.90;;;;;;4987210;28;20172;-76
2022/01/26 13:42:18;;;;;;;56.67;21.97;;;2.50;99.90;;;;;;4970834;28;20190;-78
2022/01/26 13:52:19;;;;;;;56.77;20.17;;;2.50;99.90;;;;;;4986067;28;20224;-76
2022/01/26 14:00:07;;;;;;;55.57;20.33;;;2.60;99.90;;;;;;4987973;28;20187;-78
2022/01/26 14:02:35;;;;;;;55.10;20.17;;;2.70;99.90;;;;;;4969942;28;20192;-76
2022/01/26 14:05:01;;;;;;;55.20;19.97;;;2.70;99.90;;;;;;4986940;28;20215;-77
2022/01/26 14:07:26;;;;;;;60.90;22.20;;;2.70;99.90;;;;;;4967987;28;20705;-77
2022/01/26 14:09:52;;;;;;;56.80;21.47;;;2.70;99.90;;;;;;4969923;28;20180;-78
2022/01/26 14:12:23;;;;;;;58.33;22.53;;;2.70;99.90;;;;;;4986477;28;20193;-77
2022/01/26 14:14:53;;;;;;;64.90;22.13;;;2.80;99.90;;;;;;4988053;28;20179;-78
2022/01/26 14:17:28;;;;;;;56.80;20.07;;;2.70;99.90;;;;;;4988716;28;20258;-79
2022/01/26 14:27:49;;;;;;;49.33;19.40;;;2.70;99.90;;;;;;4987081;28;20282;-78
2022/01/26 14:30:27;;;;;;;55.53;20.80;;;2.70;99.90;;;;;;4969824;28;20250;-78
2022/01/26 14:34:10;;;;;;;51.83;21.53;;;2.70;99.90;;;;;;4988095;28;20250;-78
2022/01/26 14:36:17;;;;;;;59.60;21.63;;;2.70;99.90;;;;;;4981802;28;20211;-78
2022/01/26 15:35:05;;;;;;;48.17;18.37;;;2.60;99.90;;;;;;4988587;28;20176;-79
2022/01/26 16:12:39;;;;;;;46.87;18.70;;;2.40;99.90;;;;;;4988145;28;20483;-77
2022/01/26 16:19:56;;;;;;;50.30;17.77;;;2.40;99.90;;;;;;4990467;28;20188;-79
2022/01/26 17:02:49;;;;;;;44.13;15.63;;;2.50;99.90;;;;;;4992299;28;20237;-79
2022/01/26 18:14:19;;;;;;;41.77;14.80;;;2.40;99.90;;;;;;4981923;28;20226;-79
2022/01/26 18:15:54;;;;;;;48.10;16.03;;;2.40;99.90;;;;;;4980541;28;20208;-78
2022/01/26 18:40:29;;;;;;;41.07;15.03;;;2.40;99.90;;;;;;4983172;28;20246;-78
2022/01/26 18:51:06;;;;;;;40.47;14.93;;;2.50;99.90;;;;;;4962329;28;20262;-78
2022/01/26 18:53:31;;;;;;;34.93;13.80;;;2.50;99.90;;;;;;4964880;28;20275;-78
2022/01/26 18:55:57;;;;;;;35.37;14.23;;;2.50;99.90;;;;;;4982800;28;20253;-77
2022/01/26 18:58:23;;;;;;;36.00;13.00;;;2.50;99.90;;;;;;4981607;28;20639;-76
2022/01/26 19:00:48;;;;;;;41.57;15.53;;;2.50;99.90;;;;;;4980920;28;20188;-76
2022/01/26 19:03:14;;;;;;;32.63;13.23;;;2.50;99.90;;;;;;4981720;28;20207;-76
2022/01/26 19:05:41;;;;;;;32.67;12.70;;;2.40;99.90;;;;;;4980340;28;20741;-76
2022/01/26 19:08:07;;;;;;;32.93;13.03;;;2.50;99.90;;;;;;4982227;28;20231;-76
2022/01/26 19:10:32;;;;;;;32.70;13.17;;;2.50;99.90;;;;;;4980446;28;20184;-76
2022/01/26 19:12:58;;;;;;;30.33;11.47;;;2.40;99.90;;;;;;4979755;28;20180;-77
2022/01/26 19:15:28;;;;;;;33.63;12.50;;;2.50;99.90;;;;;;4979872;28;20192;-77
2022/01/26 19:18:12;;;;;;;34.80;13.77;;;2.50;99.90;;;;;;4980113;28;20183;-77
2022/01/26 19:25:54;;;;;;;32.23;12.57;;;2.50;99.90;;;;;;4981526;28;20692;-76
2022/01/26 19:28:26;;;;;;;31.57;12.37;;;2.50;99.90;;;;;;4980503;28;20204;-77
2022/01/26 19:31:55;;;;;;;28.17;11.67;;;2.60;99.90;;;;;;4963150;28;20183;-76
2022/01/26 19:52:24;;;;;;;23.73;10.40;;;2.70;99.90;;;;;;4981146;28;20721;-77
2022/01/26 19:54:53;;;;;;;24.07;10.73;;;2.60;99.90;;;;;;4981196;28;20184;-76
2022/01/26 19:57:18;;;;;;;20.23;9.07;;;2.70;99.90;;;;;;4982038;28;20625;-78
2022/01/26 19:59:44;;;;;;;28.03;9.70;;;2.70;99.90;;;;;;4963244;28;20192;-77